sensor_id;sensor_type;location;lat;lon;timestamp;P1;durP1;ratioP1;P2;durP2;ratioP2
20073;SDS011;10197;54.282;10.078;2023-03-01T00:01:23;16.50;;;11.43;;
20073;SDS011;10197;54.282;10.078;2023-03-01T00:03:51;16.15;;;11.52;;
20073;SDS011;10197;54.282;10.078;2023-03-01T00:06:20;20.88;;;12.52;;
20073;SDS011;10197;54.282;10.078;2023-03-01T00:08:47;16.95;;;11.52;;
20073;SDS011;10197;54.282;10.078;2023-03-01T00:11:14;16.15;;;11.27;;
20073;SDS011;10197;54.282;10.078;2023-03-01T00:13:43;17.73;;;11.32;;
20073;SDS011;10197;54.282;10.078;2023-03-01T00:16:11;15.07;;;10.88;;
20073;SDS011;10197;54.282;10.078;2023-03-01T00:18:39;22.00;;;13.10;;
20073;SDS011;10197;54.282;10.078;2023-03-01T00:21:07;20.83;;;13.55;;
20073;SDS011;10197;54.282;10.078;2023-03-01T00:23:35;61.60;;;16.90;;
20073;SDS011;10197;54.282;10.078;2023-03-01T00:26:07;43.25;;;16.95;;
20073;SDS011;10197;54.282;10.078;2023-03-01T00:28:36;63.72;;;18.25;;
20073;SDS011;10197;54.282;10.078;2023-03-01T00:31:04;64.65;;;19.98;;
20073;SDS011;10197;54.282;10.078;2023-03-01T00:33:31;66.43;;;20.40;;
20073;SDS011;10197;54.282;10.078;2023-03-01T00:35:59;61.97;;;20.90;;
20073;SDS011;10197;54.282;10.078;2023-03-01T00:38:26;79.15;;;21.48;;
20073;SDS011;10197;54.282;10.078;2023-03-01T00:40:55;153.43;;;19.75;;
20073;SDS011;10197;54.282;10.078;2023-03-01T00:43:22;104.10;;;17.98;;
20073;SDS011;10197;54.282;10.078;2023-03-01T00:45:48;141.68;;;17.92;;
20073;SDS011;10197;54.282;10.078;2023-03-01T00:48:15;156.88;;;18.88;;
20073;SDS011;10197;54.282;10.078;2023-03-01T00:50:42;61.75;;;15.93;;
20073;SDS011;10197;54.282;10.078;2023-03-01T00:53:09;95.88;;;17.13;;
20073;SDS011;10197;54.282;10.078;2023-03-01T00:55:36;85.70;;;14.75;;
20073;SDS011;10197;54.282;10.078;2023-03-01T00:58:06;82.50;;;15.80;;
20073;SDS011;10197;54.282;10.078;2023-03-01T01:00:32;165.40;;;18.20;;
20073;SDS011;10197;54.282;10.078;2023-03-01T01:03:00;55.15;;;15.00;;
20073;SDS011;10197;54.282;10.078;2023-03-01T01:05:28;43.08;;;14.48;;
20073;SDS011;10197;54.282;10.078;2023-03-01T01:07:56;67.00;;;14.10;;
20073;SDS011;10197;54.282;10.078;2023-03-01T01:10:24;173.43;;;18.67;;
20073;SDS011;10197;54.282;10.078;2023-03-01T01:12:50;133.80;;;17.63;;
20073;SDS011;10197;54.282;10.078;2023-03-01T01:15:19;43.88;;;13.50;;
20073;SDS011;10197;54.282;10.078;2023-03-01T01:17:45;45.38;;;12.48;;
20073;SDS011;10197;54.282;10.078;2023-03-01T01:20:12;68.93;;;14.52;;
20073;SDS011;10197;54.282;10.078;2023-03-01T01:22:39;180.05;;;18.52;;
20073;SDS011;10197;54.282;10.078;2023-03-01T01:25:07;176.60;;;19.08;;
20073;SDS011;10197;54.282;10.078;2023-03-01T01:27:35;205.18;;;20.70;;
20073;SDS011;10197;54.282;10.078;2023-03-01T01:30:02;193.77;;;19.70;;
20073;SDS011;10197;54.282;10.078;2023-03-01T01:32:31;45.38;;;14.82;;
20073;SDS011;10197;54.282;10.078;2023-03-01T01:34:58;57.13;;;17.40;;
20073;SDS011;10197;54.282;10.078;2023-03-01T01:37:25;161.57;;;18.27;;
20073;SDS011;10197;54.282;10.078;2023-03-01T01:39:56;165.70;;;21.73;;
20073;SDS011;10197;54.282;10.078;2023-03-01T01:42:24;100.07;;;18.88;;
20073;SDS011;10197;54.282;10.078;2023-03-01T01:47:52;105.15;;;18.10;;
20073;SDS011;10197;54.282;10.078;2023-03-01T01:50:21;88.72;;;16.80;;
20073;SDS011;10197;54.282;10.078;2023-03-01T01:52:49;65.60;;;19.33;;
20073;SDS011;10197;54.282;10.078;2023-03-01T01:55:18;91.00;;;17.17;;
20073;SDS011;10197;54.282;10.078;2023-03-01T01:57:49;31.83;;;14.32;;
20073;SDS011;10197;54.282;10.078;2023-03-01T02:00:18;37.08;;;15.27;;
20073;SDS011;10197;54.282;10.078;2023-03-01T02:02:48;32.92;;;14.18;;
20073;SDS011;10197;54.282;10.078;2023-03-01T02:05:20;39.33;;;15.15;;
20073;SDS011;10197;54.282;10.078;2023-03-01T02:07:50;23.30;;;13.45;;
20073;SDS011;10197;54.282;10.078;2023-03-01T02:10:19;42.60;;;15.60;;
20073;SDS011;10197;54.282;10.078;2023-03-01T02:12:48;34.55;;;15.55;;
20073;SDS011;10197;54.282;10.078;2023-03-01T02:15:15;86.32;;;18.13;;
20073;SDS011;10197;54.282;10.078;2023-03-01T02:17:42;98.30;;;17.45;;
20073;SDS011;10197;54.282;10.078;2023-03-01T02:20:11;42.83;;;16.10;;
20073;SDS011;10197;54.282;10.078;2023-03-01T02:22:44;43.55;;;16.45;;
20073;SDS011;10197;54.282;10.078;2023-03-01T02:25:21;41.08;;;15.95;;
20073;SDS011;10197;54.282;10.078;2023-03-01T02:27:59;48.33;;;14.85;;
20073;SDS011;10197;54.282;10.078;2023-03-01T02:30:34;55.15;;;16.80;;
20073;SDS011;10197;54.282;10.078;2023-03-01T02:33:02;25.40;;;14.10;;
20073;SDS011;10197;54.282;10.078;2023-03-01T02:35:29;42.65;;;15.95;;
20073;SDS011;10197;54.282;10.078;2023-03-01T02:37:58;39.47;;;15.75;;
20073;SDS011;10197;54.282;10.078;2023-03-01T02:40:27;42.13;;;15.82;;
20073;SDS011;10197;54.282;10.078;2023-03-01T02:42:56;41.35;;;15.95;;
20073;SDS011;10197;54.282;10.078;2023-03-01T02:45:25;142.95;;;19.13;;
20073;SDS011;10197;54.282;10.078;2023-03-01T02:47:54;62.30;;;16.42;;
20073;SDS011;10197;54.282;10.078;2023-03-01T02:50:32;67.38;;;14.93;;
20073;SDS011;10197;54.282;10.078;2023-03-01T02:53:11;52.08;;;14.15;;
20073;SDS011;10197;54.282;10.078;2023-03-01T02:55:39;41.65;;;15.82;;
20073;SDS011;10197;54.282;10.078;2023-03-01T02:58:07;130.02;;;18.60;;
20073;SDS011;10197;54.282;10.078;2023-03-01T03:00:36;42.20;;;13.55;;
20073;SDS011;10197;54.282;10.078;2023-03-01T03:03:06;109.80;;;17.23;;
20073;SDS011;10197;54.282;10.078;2023-03-01T03:05:34;135.77;;;18.60;;
20073;SDS011;10197;54.282;10.078;2023-03-01T03:08:02;83.85;;;15.95;;
20073;SDS011;10197;54.282;10.078;2023-03-01T03:10:35;47.53;;;15.57;;
20073;SDS011;10197;54.282;10.078;2023-03-01T03:13:05;130.82;;;18.98;;
20073;SDS011;10197;54.282;10.078;2023-03-01T03:15:34;42.13;;;14.27;;
20073;SDS011;10197;54.282;10.078;2023-03-01T03:18:02;79.25;;;15.75;;
20073;SDS011;10197;54.282;10.078;2023-03-01T03:20:31;24.10;;;12.65;;
20073;SDS011;10197;54.282;10.078;2023-03-01T03:22:59;207.60;;;18.85;;
20073;SDS011;10197;54.282;10.078;2023-03-01T03:25:26;111.60;;;17.13;;
20073;SDS011;10197;54.282;10.078;2023-03-01T03:27:55;46.05;;;13.43;;
20073;SDS011;10197;54.282;10.078;2023-03-01T03:30:23;101.20;;;16.60;;
20073;SDS011;10197;54.282;10.078;2023-03-01T03:32:51;109.22;;;16.50;;
20073;SDS011;10197;54.282;10.078;2023-03-01T03:35:19;100.18;;;16.98;;
20073;SDS011;10197;54.282;10.078;2023-03-01T03:37:48;100.78;;;16.05;;
20073;SDS011;10197;54.282;10.078;2023-03-01T03:40:32;46.97;;;14.73;;
20073;SDS011;10197;54.282;10.078;2023-03-01T03:43:00;67.35;;;14.40;;
20073;SDS011;10197;54.282;10.078;2023-03-01T03:45:27;59.65;;;15.32;;
20073;SDS011;10197;54.282;10.078;2023-03-01T03:47:54;151.35;;;17.48;;
20073;SDS011;10197;54.282;10.078;2023-03-01T03:50:20;138.80;;;20.08;;
20073;SDS011;10197;54.282;10.078;2023-03-01T03:52:49;232.05;;;25.25;;
20073;SDS011;10197;54.282;10.078;2023-03-01T03:55:15;64.38;;;15.13;;
20073;SDS011;10197;54.282;10.078;2023-03-01T03:57:45;261.05;;;22.55;;
20073;SDS011;10197;54.282;10.078;2023-03-01T04:00:18;160.07;;;19.48;;
20073;SDS011;10197;54.282;10.078;2023-03-01T04:02:47;134.60;;;19.02;;
20073;SDS011;10197;54.282;10.078;2023-03-01T04:05:15;110.20;;;17.15;;
20073;SDS011;10197;54.282;10.078;2023-03-01T04:07:43;104.20;;;17.35;;
20073;SDS011;10197;54.282;10.078;2023-03-01T04:10:14;225.32;;;21.42;;
20073;SDS011;10197;54.282;10.078;2023-03-01T04:12:42;135.43;;;20.00;;
20073;SDS011;10197;54.282;10.078;2023-03-01T04:15:10;176.75;;;21.45;;
20073;SDS011;10197;54.282;10.078;2023-03-01T04:17:39;173.20;;;19.08;;
20073;SDS011;10197;54.282;10.078;2023-03-01T04:20:07;207.07;;;19.88;;
20073;SDS011;10197;54.282;10.078;2023-03-01T04:22:36;171.50;;;18.67;;
20073;SDS011;10197;54.282;10.078;2023-03-01T04:25:03;61.30;;;14.07;;
20073;SDS011;10197;54.282;10.078;2023-03-01T04:27:33;90.35;;;16.55;;
20073;SDS011;10197;54.282;10.078;2023-03-01T04:30:00;258.88;;;22.92;;
20073;SDS011;10197;54.282;10.078;2023-03-01T04:32:28;144.88;;;18.55;;
20073;SDS011;10197;54.282;10.078;2023-03-01T04:34:55;226.98;;;22.58;;
20073;SDS011;10197;54.282;10.078;2023-03-01T04:37:21;155.65;;;17.60;;
20073;SDS011;10197;54.282;10.078;2023-03-01T04:39:49;100.68;;;16.23;;
20073;SDS011;10197;54.282;10.078;2023-03-01T04:42:16;172.90;;;19.42;;
20073;SDS011;10197;54.282;10.078;2023-03-01T04:44:44;56.05;;;14.50;;
20073;SDS011;10197;54.282;10.078;2023-03-01T04:47:12;51.58;;;15.88;;
20073;SDS011;10197;54.282;10.078;2023-03-01T04:49:38;156.70;;;18.33;;
20073;SDS011;10197;54.282;10.078;2023-03-01T04:52:05;114.20;;;16.88;;
20073;SDS011;10197;54.282;10.078;2023-03-01T04:54:32;177.30;;;18.92;;
20073;SDS011;10197;54.282;10.078;2023-03-01T04:57:00;184.82;;;17.55;;
20073;SDS011;10197;54.282;10.078;2023-03-01T04:59:27;199.02;;;19.50;;
20073;SDS011;10197;54.282;10.078;2023-03-01T05:01:56;176.75;;;21.40;;
20073;SDS011;10197;54.282;10.078;2023-03-01T05:04:23;73.47;;;17.75;;
20073;SDS011;10197;54.282;10.078;2023-03-01T05:06:50;76.43;;;15.18;;
20073;SDS011;10197;54.282;10.078;2023-03-01T05:09:18;41.83;;;14.00;;
20073;SDS011;10197;54.282;10.078;2023-03-01T05:11:46;109.15;;;16.95;;
20073;SDS011;10197;54.282;10.078;2023-03-01T05:14:13;57.42;;;14.98;;
20073;SDS011;10197;54.282;10.078;2023-03-01T05:16:40;24.50;;;13.07;;
20073;SDS011;10197;54.282;10.078;2023-03-01T05:19:09;71.07;;;14.73;;
20073;SDS011;10197;54.282;10.078;2023-03-01T05:21:40;53.45;;;13.95;;
20073;SDS011;10197;54.282;10.078;2023-03-01T05:24:21;78.10;;;15.20;;
20073;SDS011;10197;54.282;10.078;2023-03-01T05:26:48;22.98;;;11.55;;
20073;SDS011;10197;54.282;10.078;2023-03-01T05:29:17;90.75;;;15.27;;
20073;SDS011;10197;54.282;10.078;2023-03-01T05:31:50;29.90;;;13.25;;
20073;SDS011;10197;54.282;10.078;2023-03-01T05:34:22;55.60;;;14.40;;
20073;SDS011;10197;54.282;10.078;2023-03-01T05:36:51;91.60;;;16.13;;
20073;SDS011;10197;54.282;10.078;2023-03-01T05:39:19;20.73;;;12.88;;
20073;SDS011;10197;54.282;10.078;2023-03-01T05:41:47;79.55;;;15.52;;
20073;SDS011;10197;54.282;10.078;2023-03-01T05:44:15;80.97;;;13.95;;
20073;SDS011;10197;54.282;10.078;2023-03-01T05:46:42;95.35;;;15.60;;
20073;SDS011;10197;54.282;10.078;2023-03-01T05:49:10;92.95;;;14.75;;
20073;SDS011;10197;54.282;10.078;2023-03-01T05:51:40;104.90;;;15.23;;
20073;SDS011;10197;54.282;10.078;2023-03-01T05:54:07;120.85;;;14.18;;
20073;SDS011;10197;54.282;10.078;2023-03-01T05:56:34;119.57;;;13.95;;
20073;SDS011;10197;54.282;10.078;2023-03-01T05:59:04;65.03;;;13.05;;
20073;SDS011;10197;54.282;10.078;2023-03-01T06:01:33;148.98;;;15.63;;
20073;SDS011;10197;54.282;10.078;2023-03-01T06:04:00;207.95;;;18.73;;
20073;SDS011;10197;54.282;10.078;2023-03-01T06:06:28;92.55;;;15.25;;
20073;SDS011;10197;54.282;10.078;2023-03-01T06:08:56;226.98;;;20.63;;
20073;SDS011;10197;54.282;10.078;2023-03-01T06:11:23;172.57;;;16.85;;
20073;SDS011;10197;54.282;10.078;2023-03-01T06:13:50;148.93;;;16.33;;
20073;SDS011;10197;54.282;10.078;2023-03-01T06:16:17;32.95;;;12.80;;
20073;SDS011;10197;54.282;10.078;2023-03-01T06:18:44;120.18;;;16.48;;
20073;SDS011;10197;54.282;10.078;2023-03-01T06:21:11;204.02;;;18.52;;
20073;SDS011;10197;54.282;10.078;2023-03-01T06:23:38;68.90;;;15.07;;
20073;SDS011;10197;54.282;10.078;2023-03-01T06:26:06;183.52;;;19.20;;
20073;SDS011;10197;54.282;10.078;2023-03-01T06:28:34;36.80;;;11.65;;
20073;SDS011;10197;54.282;10.078;2023-03-01T06:31:01;52.65;;;13.77;;
20073;SDS011;10197;54.282;10.078;2023-03-01T06:33:28;174.27;;;16.80;;
20073;SDS011;10197;54.282;10.078;2023-03-01T06:35:55;165.35;;;16.23;;
20073;SDS011;10197;54.282;10.078;2023-03-01T06:38:22;185.07;;;17.80;;
20073;SDS011;10197;54.282;10.078;2023-03-01T06:40:53;172.43;;;20.73;;
20073;SDS011;10197;54.282;10.078;2023-03-01T06:43:23;156.60;;;17.95;;
20073;SDS011;10197;54.282;10.078;2023-03-01T06:45:50;127.20;;;16.77;;
20073;SDS011;10197;54.282;10.078;2023-03-01T06:48:17;103.05;;;16.90;;
20073;SDS011;10197;54.282;10.078;2023-03-01T06:50:44;100.38;;;15.38;;
20073;SDS011;10197;54.282;10.078;2023-03-01T06:53:10;205.77;;;17.13;;
20073;SDS011;10197;54.282;10.078;2023-03-01T06:55:37;180.85;;;17.80;;
20073;SDS011;10197;54.282;10.078;2023-03-01T06:58:04;141.55;;;17.05;;
20073;SDS011;10197;54.282;10.078;2023-03-01T07:00:33;67.32;;;13.00;;
20073;SDS011;10197;54.282;10.078;2023-03-01T07:03:00;77.72;;;14.00;;
20073;SDS011;10197;54.282;10.078;2023-03-01T07:05:28;101.68;;;14.55;;
20073;SDS011;10197;54.282;10.078;2023-03-01T07:07:55;82.18;;;13.85;;
20073;SDS011;10197;54.282;10.078;2023-03-01T07:10:22;139.15;;;16.33;;
20073;SDS011;10197;54.282;10.078;2023-03-01T07:12:49;119.85;;;15.43;;
20073;SDS011;10197;54.282;10.078;2023-03-01T07:15:16;103.25;;;15.40;;
20073;SDS011;10197;54.282;10.078;2023-03-01T07:17:44;151.07;;;15.70;;
20073;SDS011;10197;54.282;10.078;2023-03-01T07:20:13;205.57;;;18.83;;
20073;SDS011;10197;54.282;10.078;2023-03-01T07:22:40;154.18;;;17.90;;
20073;SDS011;10197;54.282;10.078;2023-03-01T07:25:08;143.57;;;16.67;;
20073;SDS011;10197;54.282;10.078;2023-03-01T07:27:35;109.65;;;15.98;;
20073;SDS011;10197;54.282;10.078;2023-03-01T07:30:03;214.20;;;20.63;;
20073;SDS011;10197;54.282;10.078;2023-03-01T07:32:30;125.20;;;14.32;;
20073;SDS011;10197;54.282;10.078;2023-03-01T07:34:58;192.48;;;17.30;;
20073;SDS011;10197;54.282;10.078;2023-03-01T07:37:25;153.27;;;15.45;;
20073;SDS011;10197;54.282;10.078;2023-03-01T07:39:52;165.57;;;16.80;;
20073;SDS011;10197;54.282;10.078;2023-03-01T07:42:19;231.55;;;17.58;;
20073;SDS011;10197;54.282;10.078;2023-03-01T07:44:46;204.20;;;16.25;;
20073;SDS011;10197;54.282;10.078;2023-03-01T07:47:12;116.85;;;12.57;;
20073;SDS011;10197;54.282;10.078;2023-03-01T07:49:39;31.70;;;10.48;;
20073;SDS011;10197;54.282;10.078;2023-03-01T07:52:07;64.82;;;13.00;;
20073;SDS011;10197;54.282;10.078;2023-03-01T07:54:36;46.30;;;9.57;;
20073;SDS011;10197;54.282;10.078;2023-03-01T07:57:03;54.38;;;9.93;;
20073;SDS011;10197;54.282;10.078;2023-03-01T07:59:30;114.93;;;12.55;;
20073;SDS011;10197;54.282;10.078;2023-03-01T08:01:57;35.78;;;8.75;;
20073;SDS011;10197;54.282;10.078;2023-03-01T08:04:24;74.47;;;10.93;;
20073;SDS011;10197;54.282;10.078;2023-03-01T08:06:52;105.57;;;12.55;;
20073;SDS011;10197;54.282;10.078;2023-03-01T08:09:20;53.70;;;11.98;;
20073;SDS011;10197;54.282;10.078;2023-03-01T08:11:47;49.60;;;11.95;;
20073;SDS011;10197;54.282;10.078;2023-03-01T08:14:14;20.33;;;9.02;;
20073;SDS011;10197;54.282;10.078;2023-03-01T08:16:41;26.30;;;8.93;;
20073;SDS011;10197;54.282;10.078;2023-03-01T08:19:09;12.75;;;8.23;;
20073;SDS011;10197;54.282;10.078;2023-03-01T08:21:38;11.02;;;8.02;;
20073;SDS011;10197;54.282;10.078;2023-03-01T08:24:06;13.30;;;8.45;;
20073;SDS011;10197;54.282;10.078;2023-03-01T08:26:36;24.38;;;8.57;;
20073;SDS011;10197;54.282;10.078;2023-03-01T08:29:03;12.52;;;7.30;;
20073;SDS011;10197;54.282;10.078;2023-03-01T08:31:31;14.90;;;7.40;;
20073;SDS011;10197;54.282;10.078;2023-03-01T08:34:01;9.48;;;7.13;;
20073;SDS011;10197;54.282;10.078;2023-03-01T08:36:29;22.30;;;7.85;;
20073;SDS011;10197;54.282;10.078;2023-03-01T08:38:57;9.63;;;7.00;;
20073;SDS011;10197;54.282;10.078;2023-03-01T08:41:24;9.23;;;7.25;;
20073;SDS011;10197;54.282;10.078;2023-03-01T08:43:54;14.07;;;6.30;;
20073;SDS011;10197;54.282;10.078;2023-03-01T08:46:24;14.40;;;7.07;;
20073;SDS011;10197;54.282;10.078;2023-03-01T08:48:51;12.30;;;7.78;;
20073;SDS011;10197;54.282;10.078;2023-03-01T08:51:18;10.77;;;7.32;;
20073;SDS011;10197;54.282;10.078;2023-03-01T08:53:46;11.65;;;7.97;;
20073;SDS011;10197;54.282;10.078;2023-03-01T08:56:13;15.25;;;7.53;;
20073;SDS011;10197;54.282;10.078;2023-03-01T08:58:43;10.18;;;6.95;;
20073;SDS011;10197;54.282;10.078;2023-03-01T09:01:12;12.65;;;7.40;;
20073;SDS011;10197;54.282;10.078;2023-03-01T09:03:40;11.73;;;7.35;;
20073;SDS011;10197;54.282;10.078;2023-03-01T09:06:07;9.18;;;7.07;;
20073;SDS011;10197;54.282;10.078;2023-03-01T09:08:34;7.72;;;6.18;;
20073;SDS011;10197;54.282;10.078;2023-03-01T09:11:02;11.25;;;6.68;;
20073;SDS011;10197;54.282;10.078;2023-03-01T09:13:29;9.27;;;6.63;;
20073;SDS011;10197;54.282;10.078;2023-03-01T09:15:57;7.90;;;6.65;;
20073;SDS011;10197;54.282;10.078;2023-03-01T09:18:25;8.73;;;6.18;;
20073;SDS011;10197;54.282;10.078;2023-03-01T09:20:52;6.65;;;5.28;;
20073;SDS011;10197;54.282;10.078;2023-03-01T09:23:21;8.70;;;6.40;;
20073;SDS011;10197;54.282;10.078;2023-03-01T09:25:48;8.93;;;6.82;;
20073;SDS011;10197;54.282;10.078;2023-03-01T09:28:15;8.18;;;6.10;;
20073;SDS011;10197;54.282;10.078;2023-03-01T09:30:42;8.75;;;6.70;;
20073;SDS011;10197;54.282;10.078;2023-03-01T09:33:14;8.95;;;6.78;;
20073;SDS011;10197;54.282;10.078;2023-03-01T09:35:43;11.60;;;6.70;;
20073;SDS011;10197;54.282;10.078;2023-03-01T09:38:12;6.78;;;5.65;;
20073;SDS011;10197;54.282;10.078;2023-03-01T09:40:41;10.65;;;7.35;;
20073;SDS011;10197;54.282;10.078;2023-03-01T09:43:14;7.30;;;6.30;;
20073;SDS011;10197;54.282;10.078;2023-03-01T09:45:45;13.02;;;7.80;;
20073;SDS011;10197;54.282;10.078;2023-03-01T09:48:15;15.75;;;7.43;;
20073;SDS011;10197;54.282;10.078;2023-03-01T09:50:45;9.55;;;7.05;;
20073;SDS011;10197;54.282;10.078;2023-03-01T09:53:13;10.73;;;7.22;;
20073;SDS011;10197;54.282;10.078;2023-03-01T09:55:43;10.23;;;7.15;;
20073;SDS011;10197;54.282;10.078;2023-03-01T09:58:21;9.02;;;7.15;;
20073;SDS011;10197;54.282;10.078;2023-03-01T10:00:58;8.60;;;6.85;;
20073;SDS011;10197;54.282;10.078;2023-03-01T10:03:30;8.88;;;7.63;;
20073;SDS011;10197;54.282;10.078;2023-03-01T10:06:04;7.47;;;6.10;;
20073;SDS011;10197;54.282;10.078;2023-03-01T10:08:36;9.00;;;6.82;;
20073;SDS011;10197;54.282;10.078;2023-03-01T10:11:14;7.07;;;6.25;;
20073;SDS011;10197;54.282;10.078;2023-03-01T10:13:47;6.85;;;5.90;;
20073;SDS011;10197;54.282;10.078;2023-03-01T10:16:21;7.38;;;6.10;;
20073;SDS011;10197;54.282;10.078;2023-03-01T10:18:51;7.72;;;6.53;;
20073;SDS011;10197;54.282;10.078;2023-03-01T10:21:21;7.47;;;6.38;;
20073;SDS011;10197;54.282;10.078;2023-03-01T10:23:49;10.35;;;8.38;;
20073;SDS011;10197;54.282;10.078;2023-03-01T10:26:20;8.18;;;7.20;;
20073;SDS011;10197;54.282;10.078;2023-03-01T10:28:57;7.80;;;6.53;;
20073;SDS011;10197;54.282;10.078;2023-03-01T10:31:31;7.07;;;6.30;;
20073;SDS011;10197;54.282;10.078;2023-03-01T10:34:09;7.95;;;5.90;;
20073;SDS011;10197;54.282;10.078;2023-03-01T10:36:39;6.68;;;5.80;;
20073;SDS011;10197;54.282;10.078;2023-03-01T10:39:12;7.53;;;6.35;;
20073;SDS011;10197;54.282;10.078;2023-03-01T10:44:36;7.40;;;5.80;;
20073;SDS011;10197;54.282;10.078;2023-03-01T10:47:05;7.40;;;5.75;;
20073;SDS011;10197;54.282;10.078;2023-03-01T10:49:42;6.30;;;5.70;;
20073;SDS011;10197;54.282;10.078;2023-03-01T10:52:22;6.47;;;5.65;;
20073;SDS011;10197;54.282;10.078;2023-03-01T10:54:52;7.18;;;5.75;;
20073;SDS011;10197;54.282;10.078;2023-03-01T10:57:24;6.15;;;5.50;;
20073;SDS011;10197;54.282;10.078;2023-03-01T11:00:00;8.65;;;7.63;;
20073;SDS011;10197;54.282;10.078;2023-03-01T11:02:36;8.80;;;7.63;;
20073;SDS011;10197;54.282;10.078;2023-03-01T11:05:13;8.60;;;6.95;;
20073;SDS011;10197;54.282;10.078;2023-03-01T11:07:49;7.07;;;6.03;;
20073;SDS011;10197;54.282;10.078;2023-03-01T11:10:18;9.32;;;6.38;;
20073;SDS011;10197;54.282;10.078;2023-03-01T11:12:46;7.30;;;6.60;;
20073;SDS011;10197;54.282;10.078;2023-03-01T11:15:20;8.48;;;6.32;;
20073;SDS011;10197;54.282;10.078;2023-03-01T11:17:48;7.28;;;6.03;;
20073;SDS011;10197;54.282;10.078;2023-03-01T11:20:17;7.60;;;6.75;;
20073;SDS011;10197;54.282;10.078;2023-03-01T11:22:52;7.82;;;6.15;;
20073;SDS011;10197;54.282;10.078;2023-03-01T11:25:21;7.32;;;6.40;;
20073;SDS011;10197;54.282;10.078;2023-03-01T11:27:54;10.43;;;6.22;;
20073;SDS011;10197;54.282;10.078;2023-03-01T11:30:23;8.07;;;6.05;;
20073;SDS011;10197;54.282;10.078;2023-03-01T11:32:56;8.98;;;6.00;;
20073;SDS011;10197;54.282;10.078;2023-03-01T11:35:29;7.75;;;6.40;;
20073;SDS011;10197;54.282;10.078;2023-03-01T11:40:47;7.85;;;7.05;;
20073;SDS011;10197;54.282;10.078;2023-03-01T11:43:19;9.48;;;7.50;;
20073;SDS011;10197;54.282;10.078;2023-03-01T11:45:53;9.32;;;7.68;;
20073;SDS011;10197;54.282;10.078;2023-03-01T11:48:33;9.15;;;7.50;;
20073;SDS011;10197;54.282;10.078;2023-03-01T11:51:08;9.80;;;7.53;;
20073;SDS011;10197;54.282;10.078;2023-03-01T11:53:46;9.38;;;7.30;;
20073;SDS011;10197;54.282;10.078;2023-03-01T11:56:21;10.57;;;8.00;;
20073;SDS011;10197;54.282;10.078;2023-03-01T11:59:06;10.35;;;8.18;;
20073;SDS011;10197;54.282;10.078;2023-03-01T12:01:47;9.85;;;7.82;;
20073;SDS011;10197;54.282;10.078;2023-03-01T12:07:17;13.50;;;8.85;;
20073;SDS011;10197;54.282;10.078;2023-03-01T12:09:51;10.38;;;8.23;;
20073;SDS011;10197;54.282;10.078;2023-03-01T12:12:36;10.43;;;8.80;;
20073;SDS011;10197;54.282;10.078;2023-03-01T12:15:29;10.43;;;8.38;;
20073;SDS011;10197;54.282;10.078;2023-03-01T12:18:06;14.65;;;9.55;;
20073;SDS011;10197;54.282;10.078;2023-03-01T12:21:05;15.38;;;8.55;;
20073;SDS011;10197;54.282;10.078;2023-03-01T12:23:52;12.45;;;9.57;;
20073;SDS011;10197;54.282;10.078;2023-03-01T12:26:40;10.05;;;8.45;;
20073;SDS011;10197;54.282;10.078;2023-03-01T12:29:16;11.10;;;8.70;;
20073;SDS011;10197;54.282;10.078;2023-03-01T12:32:03;10.73;;;7.88;;
20073;SDS011;10197;54.282;10.078;2023-03-01T12:34:41;15.02;;;10.95;;
20073;SDS011;10197;54.282;10.078;2023-03-01T12:37:21;12.48;;;9.52;;
20073;SDS011;10197;54.282;10.078;2023-03-01T12:39:56;12.23;;;9.30;;
20073;SDS011;10197;54.282;10.078;2023-03-01T12:42:40;11.77;;;9.10;;
20073;SDS011;10197;54.282;10.078;2023-03-01T12:45:29;13.38;;;8.85;;
20073;SDS011;10197;54.282;10.078;2023-03-01T12:48:11;12.88;;;8.73;;
20073;SDS011;10197;54.282;10.078;2023-03-01T12:50:46;10.88;;;8.50;;
20073;SDS011;10197;54.282;10.078;2023-03-01T12:53:18;12.07;;;8.65;;
20073;SDS011;10197;54.282;10.078;2023-03-01T12:55:49;12.73;;;9.05;;
20073;SDS011;10197;54.282;10.078;2023-03-01T12:58:20;12.52;;;8.60;;
20073;SDS011;10197;54.282;10.078;2023-03-01T13:00:53;11.32;;;8.70;;
20073;SDS011;10197;54.282;10.078;2023-03-01T13:03:46;12.75;;;9.10;;
20073;SDS011;10197;54.282;10.078;2023-03-01T13:06:23;12.40;;;8.88;;
20073;SDS011;10197;54.282;10.078;2023-03-01T13:08:55;14.00;;;8.75;;
20073;SDS011;10197;54.282;10.078;2023-03-01T13:11:29;10.95;;;8.15;;
20073;SDS011;10197;54.282;10.078;2023-03-01T13:16:58;10.32;;;8.40;;
20073;SDS011;10197;54.282;10.078;2023-03-01T13:19:25;11.35;;;8.35;;
20073;SDS011;10197;54.282;10.078;2023-03-01T13:21:54;9.85;;;7.70;;
20073;SDS011;10197;54.282;10.078;2023-03-01T13:24:25;9.52;;;8.02;;
20073;SDS011;10197;54.282;10.078;2023-03-01T13:27:21;9.20;;;7.25;;
20073;SDS011;10197;54.282;10.078;2023-03-01T13:29:50;9.88;;;8.18;;
20073;SDS011;10197;54.282;10.078;2023-03-01T13:32:24;8.25;;;6.95;;
20073;SDS011;10197;54.282;10.078;2023-03-01T13:34:57;9.95;;;7.80;;
20073;SDS011;10197;54.282;10.078;2023-03-01T13:37:29;8.73;;;7.13;;
20073;SDS011;10197;54.282;10.078;2023-03-01T13:39:59;9.20;;;7.80;;
20073;SDS011;10197;54.282;10.078;2023-03-01T13:42:34;10.90;;;6.82;;
20073;SDS011;10197;54.282;10.078;2023-03-01T13:47:56;11.02;;;7.60;;
20073;SDS011;10197;54.282;10.078;2023-03-01T13:50:25;9.18;;;7.53;;
20073;SDS011;10197;54.282;10.078;2023-03-01T13:52:56;8.65;;;7.40;;
20073;SDS011;10197;54.282;10.078;2023-03-01T13:55:26;10.40;;;7.82;;
20073;SDS011;10197;54.282;10.078;2023-03-01T13:57:57;9.27;;;7.80;;
20073;SDS011;10197;54.282;10.078;2023-03-01T14:00:32;10.00;;;7.65;;
20073;SDS011;10197;54.282;10.078;2023-03-01T14:03:02;11.68;;;8.70;;
20073;SDS011;10197;54.282;10.078;2023-03-01T14:05:39;11.02;;;8.55;;
20073;SDS011;10197;54.282;10.078;2023-03-01T14:08:18;8.20;;;7.28;;
20073;SDS011;10197;54.282;10.078;2023-03-01T14:10:54;10.23;;;7.72;;
20073;SDS011;10197;54.282;10.078;2023-03-01T14:13:38;8.60;;;7.50;;
20073;SDS011;10197;54.282;10.078;2023-03-01T14:16:17;11.13;;;8.50;;
20073;SDS011;10197;54.282;10.078;2023-03-01T14:18:52;13.25;;;10.05;;
20073;SDS011;10197;54.282;10.078;2023-03-01T14:21:25;11.68;;;8.60;;
20073;SDS011;10197;54.282;10.078;2023-03-01T14:23:52;10.23;;;8.65;;
20073;SDS011;10197;54.282;10.078;2023-03-01T14:26:20;11.00;;;9.00;;
20073;SDS011;10197;54.282;10.078;2023-03-01T14:28:47;10.40;;;7.85;;
20073;SDS011;10197;54.282;10.078;2023-03-01T14:31:29;10.18;;;9.07;;
20073;SDS011;10197;54.282;10.078;2023-03-01T14:34:01;11.55;;;8.95;;
20073;SDS011;10197;54.282;10.078;2023-03-01T14:36:28;13.50;;;9.60;;
20073;SDS011;10197;54.282;10.078;2023-03-01T14:38:56;10.90;;;8.75;;
20073;SDS011;10197;54.282;10.078;2023-03-01T14:41:31;13.68;;;9.88;;
20073;SDS011;10197;54.282;10.078;2023-03-01T14:44:01;16.25;;;10.98;;
20073;SDS011;10197;54.282;10.078;2023-03-01T14:46:30;13.55;;;9.75;;
20073;SDS011;10197;54.282;10.078;2023-03-01T14:49:03;14.48;;;10.65;;